4XAFU LLMG-LLMG

Flight info

Callsign 4XAFU
Flight time 0h 4m
Altitude 1200
Route LLMG MEGGIDO B WEST
Aircraft AT8T/L-V/N

Departure

Time 2026-04-24 15:04
Airport Megiddo Airport (LLMG)

Arrival

Time 2026-04-24 15:09
Airport Megiddo Airport (LLMG)
Time Latitude Longitude Altitude Speed Heading
2026-04-24 14:56 32.59481 35.23704 178 ft 0 kts 340°
2026-04-24 14:58 32.59485 35.23701 179 ft 0 kts 56°
2026-04-24 14:58 32.59455 35.23692 179 ft 17 kts 260°
2026-04-24 14:58 32.59452 35.23677 179 ft 2 kts 254°
2026-04-24 14:58 32.59450 35.23666 179 ft 0 kts 264°
2026-04-24 14:59 32.59454 35.23647 179 ft 10 kts 297°
2026-04-24 14:59 32.59527 35.23578 178 ft 21 kts 328°
2026-04-24 14:59 32.59650 35.23489 175 ft 19 kts 330°
2026-04-24 14:59 32.59708 35.23469 176 ft 4 kts 117°
2026-04-24 15:00 32.59699 35.23601 172 ft 24 kts 93°
2026-04-24 15:00 32.59690 35.23795 171 ft 23 kts 90°
2026-04-24 15:00 32.59696 35.23994 170 ft 20 kts 28°
2026-04-24 15:00 32.59702 35.23983 170 ft 5 kts 226°
2026-04-24 15:01 32.59697 35.23976 171 ft 0 kts 273°
2026-04-24 15:01 32.59698 35.23971 171 ft 0 kts 273°
2026-04-24 15:03 32.59699 35.23950 170 ft 18 kts 274°
2026-04-24 15:03 32.59702 35.23767 172 ft 54 kts 271°
2026-04-24 15:03 32.59709 35.23287 178 ft 86 kts 270°
2026-04-24 15:04 32.59715 35.22515 291 ft 102 kts 270°
2026-04-24 15:04 32.59699 35.21621 388 ft 113 kts 269°
2026-04-24 15:04 32.59632 35.20787 704 ft 103 kts 268°
2026-04-24 15:04 32.59620 35.19909 813 ft 108 kts 274°
2026-04-24 15:05 32.59342 35.19110 745 ft 122 kts 213°
2026-04-24 15:05 32.59115 35.19031 702 ft 129 kts 184°
2026-04-24 15:05 32.58436 35.19162 739 ft 120 kts 176°
2026-04-24 15:05 32.57680 35.19527 708 ft 124 kts 133°
2026-04-24 15:06 32.57477 35.20413 796 ft 115 kts 86°
2026-04-24 15:06 32.57492 35.21435 810 ft 131 kts 87°
2026-04-24 15:06 32.57522 35.22541 905 ft 139 kts 85°
2026-04-24 15:06 32.57537 35.23683 994 ft 131 kts 87°
2026-04-24 15:07 32.57521 35.24589 1072 ft 96 kts 88°
2026-04-24 15:07 32.57527 35.25362 1131 ft 92 kts 66°
2026-04-24 15:07 32.57909 35.25971 1003 ft 98 kts 26°
2026-04-24 15:07 32.58531 35.26113 996 ft 85 kts
2026-04-24 15:08 32.59113 35.26192 852 ft 84 kts 355°
2026-04-24 15:08 32.59650 35.26082 753 ft 75 kts 308°
2026-04-24 15:08 32.59639 35.25444 524 ft 81 kts 287°
2026-04-24 15:08 32.59675 35.24766 322 ft 82 kts 274°
2026-04-24 15:09 32.59703 35.24107 185 ft 77 kts 259°
2026-04-24 15:09 32.59699 35.23766 172 ft 0 kts 275°